Time;durP1;ratioP1;P1;durP2;ratioP2;P2;SDS_P1;SDS_P2;PMS_P1;PMS_P2;Temp;Humidity;BMP_temperature;BMP_pressure;BME280_temperature;BME280_humidity;BME280_pressure;Samples;Min_cycle;Max_cycle;Signal;HPM_P1;HPM_P2
2022/09/06 00:01:12;;;;;;;;;;;12.70;99.90;;;;;;5120199;27;19916;-56
2022/09/06 00:03:52;;;;;;;;;;;12.70;99.90;;;;;;5094923;27;19931;-55
2022/09/06 00:06:32;;;;;;;;;;;12.70;99.90;;;;;;5133252;27;19911;-54
2022/09/06 00:09:12;;;;;;;;;;;12.70;99.90;;;;;;5097820;27;19930;-55
2022/09/06 00:11:51;;;;;;;;;;;12.70;99.90;;;;;;5118628;27;19920;-55
2022/09/06 00:14:31;;;;;;;;;;;12.70;99.90;;;;;;5086599;27;20139;-55
2022/09/06 00:17:11;;;;;;;;;;;12.70;99.90;;;;;;5123787;27;20300;-55
2022/09/06 00:19:51;;;;;;;;;;;12.70;99.90;;;;;;5098639;27;19926;-55
2022/09/06 00:22:31;;;;;;;;;;;12.70;99.90;;;;;;5106655;27;19912;-55
2022/09/06 00:25:11;;;;;;;;;;;12.80;99.90;;;;;;5107585;27;19916;-55
2022/09/06 00:27:54;;;;;;;;;;;12.70;99.90;;;;;;5127013;27;19957;-55
2022/09/06 00:30:35;;;;;;;;;;;12.70;99.90;;;;;;5118237;27;20296;-55
2022/09/06 00:33:15;;;;;;;;;;;12.70;99.90;;;;;;5122268;27;20115;-55
2022/09/06 00:36:00;;;;;;;;;;;12.70;99.90;;;;;;5101253;27;19930;-55
2022/09/06 00:38:51;;;;;;;;;;;12.70;99.90;;;;;;5133281;27;19915;-55
2022/09/06 00:41:31;;;;;;;;;;;12.70;99.90;;;;;;5110896;27;19919;-55
2022/09/06 00:44:11;;;;;;;;;;;12.70;99.90;;;;;;5107450;27;19943;-55
2022/09/06 00:46:52;;;;;;;;;;;12.70;99.90;;;;;;5144405;27;19922;-55
2022/09/06 00:49:34;;;;;;;;;;;12.60;99.90;;;;;;5096609;27;19958;-54
2022/09/06 00:52:16;;;;;;;;;;;12.60;99.90;;;;;;5122005;27;19926;-55
2022/09/06 00:54:57;;;;;;;;;;;12.70;99.90;;;;;;5120959;27;19920;-55
2022/09/06 00:57:36;;;;;;;;;;;12.80;99.90;;;;;;5124111;27;19925;-55
2022/09/06 01:00:17;;;;;;;;;;;12.80;99.90;;;;;;5109502;27;19922;-55
2022/09/06 01:02:58;;;;;;;;;;;12.70;99.90;;;;;;5112989;27;20556;-55
2022/09/06 01:05:40;;;;;;;;;;;12.70;99.90;;;;;;5117954;27;19920;-55
2022/09/06 01:08:26;;;;;;;;;;;12.50;99.90;;;;;;5121067;27;20567;-54
2022/09/06 01:11:19;;;;;;;;;;;12.50;99.90;;;;;;5124297;27;19934;-55
2022/09/06 01:14:04;;;;;;;;;;;12.40;99.90;;;;;;5115300;27;19912;-55
2022/09/06 01:16:48;;;;;;;;;;;12.40;99.90;;;;;;5125414;27;19918;-55
2022/09/06 01:19:36;;;;;;;;;;;12.40;99.90;;;;;;5125177;27;20194;-55
2022/09/06 01:22:26;;;;;;;;;;;12.30;99.90;;;;;;5125872;27;19916;-55
2022/09/06 01:25:17;;;;;;;;;;;12.30;99.90;;;;;;5120362;27;19922;-55
2022/09/06 01:28:09;;;;;;;;;;;12.20;99.90;;;;;;5124378;27;19916;-55
2022/09/06 01:30:51;;;;;;;;;;;12.20;99.90;;;;;;5124341;27;19922;-55
2022/09/06 01:33:33;;;;;;;;;;;12.10;99.90;;;;;;5121022;27;19922;-55
2022/09/06 01:36:18;;;;;;;;;;;12.10;99.90;;;;;;5124432;27;19953;-55
2022/09/06 01:38:58;;;;;;;;;;;12.10;99.90;;;;;;5124058;27;20425;-55
2022/09/06 01:41:38;;;;;;;;;;;12.10;99.90;;;;;;5118102;27;20185;-55
2022/09/06 01:44:18;;;;;;;;;;;12.00;99.90;;;;;;5118341;27;19930;-55
2022/09/06 01:47:00;;;;;;;;;;;12.00;99.90;;;;;;5078761;27;19923;-55
2022/09/06 01:49:44;;;;;;;;;;;12.00;99.90;;;;;;5084152;27;19912;-55
2022/09/06 01:52:31;;;;;;;;;;;12.00;99.90;;;;;;5124601;27;19922;-55
2022/09/06 01:55:16;;;;;;;;;;;12.00;99.90;;;;;;5118541;27;19916;-55
2022/09/06 01:58:03;;;;;;;;;;;12.10;99.90;;;;;;5124716;27;19912;-55
2022/09/06 02:00:46;;;;;;;;;;;12.00;99.90;;;;;;5124378;27;19911;-55
2022/09/06 02:03:28;;;;;;;;;;;11.90;99.90;;;;;;5124744;27;19918;-55
2022/09/06 02:06:10;;;;;;;;;;;11.80;99.90;;;;;;5125027;27;19938;-55
2022/09/06 02:08:52;;;;;;;;;;;11.80;99.90;;;;;;5144512;27;20261;-55
2022/09/06 02:11:38;;;;;;;;;;;11.80;99.90;;;;;;5124823;27;19933;-55
2022/09/06 02:14:20;;;;;;;;;;;11.80;99.90;;;;;;5125834;27;20422;-56
2022/09/06 02:17:02;;;;;;;;;;;11.80;99.90;;;;;;5124833;27;20331;-53
2022/09/06 02:19:45;;;;;;;;;;;11.70;99.90;;;;;;5124244;27;19949;-56
2022/09/06 02:22:29;;;;;;;;;;;11.70;99.90;;;;;;5124918;27;19915;-56
2022/09/06 02:25:10;;;;;;;;;;;11.60;99.90;;;;;;5124881;27;19912;-54
2022/09/06 02:27:50;;;;;;;;;;;11.60;99.90;;;;;;5104162;27;20399;-54
2022/09/06 02:30:30;;;;;;;;;;;11.70;99.90;;;;;;5124311;27;19916;-55
2022/09/06 02:33:12;;;;;;;;;;;11.60;99.90;;;;;;5121794;27;19912;-54
2022/09/06 02:35:53;;;;;;;;;;;11.60;99.90;;;;;;5125049;27;19918;-55
2022/09/06 02:38:34;;;;;;;;;;;11.50;99.90;;;;;;5124325;27;19911;-54
2022/09/06 02:41:15;;;;;;;;;;;11.60;99.90;;;;;;5125404;27;20426;-55
2022/09/06 02:43:55;;;;;;;;;;;11.60;99.90;;;;;;5115361;27;19919;-53
2022/09/06 02:46:35;;;;;;;;;;;11.60;99.90;;;;;;5125189;27;20277;-55
2022/09/06 02:49:15;;;;;;;;;;;11.60;99.90;;;;;;5124320;27;20379;-54
2022/09/06 02:51:55;;;;;;;;;;;11.60;99.90;;;;;;5124984;27;19926;-55
2022/09/06 02:54:36;;;;;;;;;;;11.60;99.90;;;;;;5125081;27;19922;-53
2022/09/06 02:57:16;;;;;;;;;;;11.60;99.90;;;;;;5124704;27;19916;-54
2022/09/06 02:59:56;;;;;;;;;;;11.50;99.90;;;;;;5124656;27;19912;-54
2022/09/06 03:02:36;;;;;;;;;;;11.50;99.90;;;;;;5125270;27;19912;-53
2022/09/06 03:05:15;;;;;;;;;;;11.60;99.90;;;;;;5125761;27;19926;-54
2022/09/06 03:07:56;;;;;;;;;;;11.50;99.90;;;;;;5124753;27;19945;-55
2022/09/06 03:10:37;;;;;;;;;;;11.50;99.90;;;;;;5124371;27;19918;-54
2022/09/06 03:13:18;;;;;;;;;;;11.50;99.90;;;;;;5120532;27;19912;-55
2022/09/06 03:15:59;;;;;;;;;;;11.50;99.90;;;;;;5123038;27;20316;-55
2022/09/06 03:18:39;;;;;;;;;;;11.60;99.90;;;;;;5123952;27;19922;-55
2022/09/06 03:21:19;;;;;;;;;;;11.60;99.90;;;;;;5124796;27;19920;-56
2022/09/06 03:23:59;;;;;;;;;;;11.70;99.90;;;;;;5113847;27;20270;-54
2022/09/06 03:26:39;;;;;;;;;;;11.70;99.90;;;;;;5104225;27;19912;-54
2022/09/06 03:29:19;;;;;;;;;;;11.60;99.90;;;;;;5124203;27;19911;-56
2022/09/06 03:31:58;;;;;;;;;;;11.50;99.90;;;;;;5104895;27;19916;-56
2022/09/06 03:34:38;;;;;;;;;;;11.50;99.90;;;;;;5109331;27;19919;-56
2022/09/06 03:37:19;;;;;;;;;;;11.50;99.90;;;;;;5125057;27;20488;-55
2022/09/06 03:40:00;;;;;;;;;;;11.50;99.90;;;;;;5124963;27;19918;-55
2022/09/06 03:42:39;;;;;;;;;;;11.50;99.90;;;;;;5126573;27;19918;-54
2022/09/06 03:45:19;;;;;;;;;;;11.50;99.90;;;;;;5125525;27;19912;-54
2022/09/06 03:47:59;;;;;;;;;;;11.40;99.90;;;;;;5122950;27;20458;-54
2022/09/06 03:50:43;;;;;;;;;;;11.40;99.90;;;;;;5162271;27;19911;-54
2022/09/06 03:53:24;;;;;;;;;;;11.40;99.90;;;;;;5125484;27;19912;-54
2022/09/06 03:56:05;;;;;;;;;;;11.40;99.90;;;;;;5123189;27;19917;-55
2022/09/06 03:58:45;;;;;;;;;;;11.30;99.90;;;;;;5124207;27;19915;-54
2022/09/06 04:01:25;;;;;;;;;;;11.30;99.90;;;;;;5123616;27;19916;-53
2022/09/06 04:04:04;;;;;;;;;;;11.20;99.90;;;;;;5125306;27;20122;-53
2022/09/06 04:06:44;;;;;;;;;;;11.20;99.90;;;;;;5125133;27;19916;-53
2022/09/06 04:09:24;;;;;;;;;;;11.10;99.90;;;;;;5124586;27;20376;-53
2022/09/06 04:12:04;;;;;;;;;;;11.20;99.90;;;;;;5125718;27;19912;-55
2022/09/06 04:14:44;;;;;;;;;;;11.20;99.90;;;;;;5108890;27;19912;-55
2022/09/06 04:17:25;;;;;;;;;;;11.10;99.90;;;;;;5092994;27;20389;-53
2022/09/06 04:20:06;;;;;;;;;;;11.10;99.90;;;;;;5121976;27;19915;-54
2022/09/06 04:22:46;;;;;;;;;;;11.10;99.90;;;;;;5114606;27;19916;-54
2022/09/06 04:25:26;;;;;;;;;;;11.00;99.90;;;;;;5092974;27;19916;-55
2022/09/06 04:28:06;;;;;;;;;;;11.10;99.90;;;;;;5125492;27;19912;-54
2022/09/06 04:30:51;;;;;;;;;;;11.10;99.90;;;;;;5124709;27;19926;-54
2022/09/06 04:33:31;;;;;;;;;;;11.10;99.90;;;;;;5119355;27;19912;-55
2022/09/06 04:36:12;;;;;;;;;;;11.10;99.90;;;;;;5125678;27;19912;-54
2022/09/06 04:38:53;;;;;;;;;;;11.10;99.90;;;;;;5124663;27;19912;-54
2022/09/06 04:41:33;;;;;;;;;;;11.10;99.90;;;;;;5125582;27;20272;-55
2022/09/06 04:44:13;;;;;;;;;;;11.20;99.90;;;;;;5105682;27;19912;-56
2022/09/06 04:47:02;;;;;;;;;;;11.30;99.90;;;;;;5125734;27;19912;-55
2022/09/06 04:49:42;;;;;;;;;;;11.40;99.90;;;;;;5123604;27;19919;-54
2022/09/06 04:52:22;;;;;;;;;;;11.60;99.90;;;;;;5123983;27;20339;-54
2022/09/06 04:55:02;;;;;;;;;;;11.80;99.90;;;;;;5095870;27;19916;-54
2022/09/06 04:57:42;;;;;;;;;;;12.00;99.90;;;;;;5104347;27;19919;-53
2022/09/06 05:00:22;;;;;;;;;;;12.10;99.90;;;;;;5123970;27;20256;-56
2022/09/06 05:03:01;;;;;;;;;;;12.30;99.90;;;;;;5122723;27;19919;-55
2022/09/06 05:05:41;;;;;;;;;;;12.40;99.90;;;;;;5124275;27;19938;-54
2022/09/06 05:08:21;;;;;;;;;;;12.60;99.90;;;;;;5124123;27;19916;-53
2022/09/06 05:11:01;;;;;;;;;;;12.70;99.90;;;;;;5123860;27;19911;-56
2022/09/06 05:13:41;;;;;;;;;;;12.80;99.90;;;;;;5124174;27;19926;-54
2022/09/06 05:16:21;;;;;;;;;;;12.80;99.90;;;;;;5123719;27;19920;-53
2022/09/06 05:19:00;;;;;;;;;;;12.80;99.90;;;;;;5103207;27;19915;-54
2022/09/06 05:21:40;;;;;;;;;;;12.90;99.90;;;;;;5124472;27;20292;-54
2022/09/06 05:24:20;;;;;;;;;;;12.90;99.90;;;;;;5124390;27;19922;-54
2022/09/06 05:27:02;;;;;;;;;;;12.90;99.90;;;;;;5124144;27;20325;-53
2022/09/06 05:29:43;;;;;;;;;;;13.00;99.90;;;;;;5123740;27;19916;-54
2022/09/06 05:32:23;;;;;;;;;;;13.00;99.90;;;;;;5124253;27;19935;-55
2022/09/06 05:35:03;;;;;;;;;;;13.00;99.90;;;;;;5123794;27;19916;-54
2022/09/06 05:37:42;;;;;;;;;;;13.00;99.90;;;;;;5124208;27;19938;-55
2022/09/06 05:40:22;;;;;;;;;;;13.00;99.90;;;;;;5122133;27;20621;-55
2022/09/06 05:43:02;;;;;;;;;;;13.10;99.90;;;;;;5122267;27;19916;-55
2022/09/06 05:45:42;;;;;;;;;;;13.20;99.90;;;;;;5123318;27;19911;-54
2022/09/06 05:48:22;;;;;;;;;;;13.50;99.90;;;;;;5124076;27;19919;-54
2022/09/06 05:51:02;;;;;;;;;;;13.70;99.90;;;;;;5123131;27;19918;-53
2022/09/06 05:53:43;;;;;;;;;;;13.80;99.90;;;;;;5123273;27;20261;-54
2022/09/06 05:56:24;;;;;;;;;;;13.90;99.90;;;;;;5122821;27;20281;-53
2022/09/06 05:59:04;;;;;;;;;;;14.00;99.90;;;;;;5123246;27;19912;-53
2022/09/06 06:01:49;;;;;;;;;;;14.20;99.90;;;;;;5123457;27;19912;-55
2022/09/06 06:04:29;;;;;;;;;;;14.50;99.90;;;;;;5102787;27;19920;-55
2022/09/06 06:07:08;;;;;;;;;;;14.80;99.90;;;;;;5123687;27;19912;-53
2022/09/06 06:09:48;;;;;;;;;;;15.10;99.90;;;;;;5124368;27;20300;-55
2022/09/06 06:12:28;;;;;;;;;;;15.40;99.90;;;;;;5124753;27;20031;-52
2022/09/06 06:15:09;;;;;;;;;;;15.60;99.90;;;;;;5124592;27;19919;-54
2022/09/06 06:17:49;;;;;;;;;;;15.70;99.90;;;;;;5104686;27;20310;-55
2022/09/06 06:20:29;;;;;;;;;;;15.80;99.90;;;;;;5104509;27;19926;-52
2022/09/06 06:23:09;;;;;;;;;;;15.90;99.90;;;;;;5121620;27;19913;-54
2022/09/06 06:25:49;;;;;;;;;;;15.90;99.90;;;;;;5118824;27;19926;-56
2022/09/06 06:28:29;;;;;;;;;;;15.80;99.90;;;;;;5118437;27;19920;-53
2022/09/06 06:31:10;;;;;;;;;;;15.90;99.90;;;;;;5122936;27;19953;-53
2022/09/06 06:33:50;;;;;;;;;;;15.80;99.90;;;;;;5114371;27;19922;-52
2022/09/06 06:36:32;;;;;;;;;;;15.60;99.90;;;;;;5150411;27;19918;-55
2022/09/06 06:39:13;;;;;;;;;;;15.60;99.90;;;;;;5122802;27;19933;-52
2022/09/06 06:41:53;;;;;;;;;;;15.70;99.90;;;;;;5139735;27;19915;-53
2022/09/06 06:44:52;;;;;;;;;;;15.90;99.90;;;;;;5104217;27;19961;-53
2022/09/06 06:47:31;;;;;;;;;;;16.00;99.90;;;;;;5104535;27;19920;-54
2022/09/06 06:50:11;;;;;;;;;;;16.30;99.90;;;;;;5123584;27;19926;-55
2022/09/06 06:52:53;;;;;;;;;;;16.60;99.90;;;;;;5144231;27;19991;-54
2022/09/06 06:55:33;;;;;;;;;;;16.80;99.90;;;;;;5121565;27;19932;-52
2022/09/06 06:58:12;;;;;;;;;;;17.10;99.90;;;;;;5120511;27;19919;-54
2022/09/06 07:00:52;;;;;;;;;;;17.30;99.90;;;;;;5141486;27;20319;-54
2022/09/06 07:03:32;;;;;;;;;;;17.50;99.90;;;;;;5075735;28;19917;-53
2022/09/06 07:06:12;;;;;;;;;;;17.80;99.90;;;;;;5111831;27;19916;-56
2022/09/06 07:08:52;;;;;;;;;;;18.10;99.90;;;;;;5119542;27;19934;-55
2022/09/06 07:11:31;;;;;;;;;;;18.40;99.90;;;;;;5133026;27;20172;-55
2022/09/06 07:14:11;;;;;;;;;;;18.70;99.90;;;;;;5090513;27;19919;-54
2022/09/06 07:16:57;;;;;;;;;;;19.20;99.90;;;;;;5151864;27;20107;-53
2022/09/06 07:19:37;;;;;;;;;;;19.80;99.90;;;;;;5117439;27;19920;-54
2022/09/06 07:22:17;;;;;;;;;;;20.60;99.90;;;;;;5124783;27;19934;-53
2022/09/06 07:24:57;;;;;;;;;;;21.20;99.90;;;;;;5123596;27;19912;-54
2022/09/06 07:27:37;;;;;;;;;;;21.80;99.90;;;;;;5123060;27;19943;-54
2022/09/06 07:30:18;;;;;;;;;;;22.20;99.90;;;;;;5123733;27;19912;-56
2022/09/06 07:32:59;;;;;;;;;;;22.40;99.90;;;;;;5124393;27;20129;-54
2022/09/06 07:35:40;;;;;;;;;;;22.30;99.90;;;;;;5124176;27;19926;-54
2022/09/06 07:38:21;;;;;;;;;;;22.00;99.90;;;;;;5123750;27;19934;-52
2022/09/06 07:41:01;;;;;;;;;;;21.90;99.90;;;;;;5123874;27;19925;-53
2022/09/06 07:43:42;;;;;;;;;;;21.80;99.90;;;;;;5115245;27;20328;-53
2022/09/06 07:46:22;;;;;;;;;;;21.90;99.90;;;;;;5116842;27;19924;-54
2022/09/06 07:49:04;;;;;;;;;;;22.20;99.90;;;;;;5121861;27;19961;-54
2022/09/06 07:51:43;;;;;;;;;;;22.50;99.90;;;;;;5109872;27;19916;-53
2022/09/06 07:54:23;;;;;;;;;;;22.70;99.90;;;;;;5105601;27;20381;-54
2022/09/06 07:57:03;;;;;;;;;;;23.00;99.90;;;;;;5103759;27;19913;-54
2022/09/06 07:59:43;;;;;;;;;;;23.20;99.90;;;;;;5121632;27;19920;-56
2022/09/06 08:02:23;;;;;;;;;;;23.70;99.90;;;;;;5125538;27;19911;-56
2022/09/06 08:05:03;;;;;;;;;;;24.20;99.90;;;;;;5125493;27;19918;-53
2022/09/06 08:07:44;;;;;;;;;;;24.50;99.90;;;;;;5124875;27;19911;-54
2022/09/06 08:10:24;;;;;;;;;;;24.60;99.90;;;;;;5125601;27;19912;-54
2022/09/06 08:13:04;;;;;;;;;;;24.60;99.90;;;;;;5121729;27;19912;-54
2022/09/06 08:15:43;;;;;;;;;;;24.70;99.90;;;;;;5128012;22;20302;-58
2022/09/06 08:18:23;;;;;;;;;;;24.90;99.90;;;;;;5108839;27;19916;-58
2022/09/06 08:21:11;;;;;;;;;;;25.10;99.90;;;;;;5124902;27;19912;-58
2022/09/06 08:23:52;;;;;;;;;;;25.30;99.90;;;;;;5144697;27;19926;-58
2022/09/06 08:26:33;;;;;;;;;;;25.60;99.90;;;;;;5124806;27;19938;-58
2022/09/06 08:29:14;;;;;;;;;;;25.60;99.90;;;;;;5103329;27;19912;-58
2022/09/06 08:31:54;;;;;;;;;;;25.50;99.90;;;;;;5125488;27;20180;-58
2022/09/06 08:34:33;;;;;;;;;;;25.30;99.90;;;;;;5118719;27;19912;-59
2022/09/06 08:37:13;;;;;;;;;;;25.00;99.90;;;;;;5124804;27;20334;-57
2022/09/06 08:39:53;;;;;;;;;;;24.70;99.90;;;;;;5140031;27;19927;-58
2022/09/06 08:42:33;;;;;;;;;;;24.30;99.90;;;;;;5083558;28;19913;-58
2022/09/06 08:45:15;;;;;;;;;;;24.20;99.90;;;;;;5112842;27;19912;-58
2022/09/06 08:47:57;;;;;;;;;;;24.20;99.90;;;;;;5104521;27;20369;-58
2022/09/06 08:50:38;;;;;;;;;;;24.40;99.90;;;;;;5124591;27;19916;-58
2022/09/06 08:53:19;;;;;;;;;;;24.60;99.90;;;;;;5125672;27;19918;-58
2022/09/06 08:56:05;;;;;;;;;;;24.80;99.90;;;;;;5103549;27;19916;-58
2022/09/06 08:58:58;;;;;;;;;;;24.80;99.90;;;;;;5103299;27;20214;-58
2022/09/06 09:01:44;;;;;;;;;;;24.70;99.90;;;;;;5104659;27;20395;-58
2022/09/06 09:04:27;;;;;;;;;;;24.80;99.90;;;;;;5120090;27;19945;-58
2022/09/06 09:07:16;;;;;;;;;;;25.00;99.90;;;;;;5104593;27;19923;-58
2022/09/06 09:09:57;;;;;;;;;;;25.20;99.90;;;;;;5124337;27;19911;-58
2022/09/06 09:12:42;;;;;;;;;;;25.30;99.90;;;;;;5123807;27;19930;-58
2022/09/06 09:15:22;;;;;;;;;;;25.50;99.90;;;;;;5123472;27;19916;-58
2022/09/06 09:18:02;;;;;;;;;;;25.80;99.90;;;;;;5124622;27;19918;-58
2022/09/06 09:20:42;;;;;;;;;;;25.90;99.90;;;;;;5123713;27;20308;-58
2022/09/06 09:23:21;;;;;;;;;;;25.80;99.90;;;;;;5123697;27;20437;-57
2022/09/06 09:26:02;;;;;;;;;;;25.90;99.90;;;;;;5124195;27;19912;-58
2022/09/06 09:28:56;;;;;;;;;;;25.80;99.90;;;;;;5124771;27;19912;-58
2022/09/06 09:31:38;;;;;;;;;;;25.60;99.90;;;;;;5104656;27;19916;-58
2022/09/06 09:34:29;;;;;;;;;;;25.60;99.90;;;;;;5121124;27;19993;-58
2022/09/06 09:37:18;;;;;;;;;;;25.80;99.90;;;;;;5124781;27;19916;-58
2022/09/06 09:39:58;;;;;;;;;;;26.10;99.90;;;;;;5103798;27;20438;-59
2022/09/06 09:42:38;;;;;;;;;;;26.30;99.90;;;;;;5082904;28;19916;-58
2022/09/06 09:45:27;;;;;;;;;;;26.60;99.90;;;;;;5104597;27;19916;-58
2022/09/06 09:48:19;;;;;;;;;;;27.10;99.90;;;;;;5104359;27;19965;-58
2022/09/06 09:51:15;;;;;;;;;;;27.50;99.70;;;;;;5083570;28;19913;-58
2022/09/06 09:53:55;;;;;;;;;;;27.50;97.80;;;;;;5102358;27;20265;-58
2022/09/06 09:56:45;;;;;;;;;;;27.60;94.70;;;;;;5122701;27;19916;-58
2022/09/06 09:59:27;;;;;;;;;;;27.80;94.30;;;;;;5103031;27;20323;-58
2022/09/06 10:02:16;;;;;;;;;;;28.00;89.00;;;;;;5081139;28;19912;-58
2022/09/06 10:05:01;;;;;;;;;;;27.90;89.00;;;;;;5112486;27;20223;-58
2022/09/06 10:07:43;;;;;;;;;;;27.90;89.00;;;;;;5101972;27;19934;-58
2022/09/06 10:10:25;;;;;;;;;;;27.90;85.30;;;;;;5088843;27;19930;-58
2022/09/06 10:13:12;;;;;;;;;;;28.00;84.60;;;;;;5090516;27;20033;-58
2022/09/06 10:15:53;;;;;;;;;;;28.00;83.90;;;;;;5114053;27;19924;-58
2022/09/06 10:18:34;;;;;;;;;;;28.20;80.70;;;;;;5101943;27;19920;-58
2022/09/06 10:21:17;;;;;;;;;;;28.30;81.70;;;;;;5082169;28;19916;-58
2022/09/06 10:24:05;;;;;;;;;;;28.20;80.40;;;;;;5100084;27;19930;-58
2022/09/06 10:26:49;;;;;;;;;;;28.10;76.50;;;;;;5100497;27;19924;-58
2022/09/06 10:29:33;;;;;;;;;;;28.20;73.70;;;;;;5132405;27;19923;-59
2022/09/06 10:32:21;;;;;;;;;;;28.10;73.70;;;;;;5091280;27;19958;-58
2022/09/06 10:35:09;;;;;;;;;;;28.00;71.60;;;;;;5086390;27;19958;-58
2022/09/06 10:37:52;;;;;;;;;;;28.00;70.80;;;;;;5101398;27;19973;-58
2022/09/06 10:40:34;;;;;;;;;;;28.30;70.00;;;;;;5103513;27;19946;-58
2022/09/06 10:43:16;;;;;;;;;;;28.20;71.10;;;;;;5103710;27;19916;-58
2022/09/06 10:46:00;;;;;;;;;;;28.10;69.80;;;;;;5125661;27;19926;-58
2022/09/06 10:48:41;;;;;;;;;;;28.10;71.30;;;;;;5104813;27;19926;-58
2022/09/06 10:51:25;;;;;;;;;;;28.40;70.00;;;;;;5082681;28;19916;-58
2022/09/06 10:54:08;;;;;;;;;;;28.80;68.80;;;;;;5081265;28;20397;-58
2022/09/06 10:56:51;;;;;;;;;;;28.80;66.20;;;;;;5122122;27;20550;-58
2022/09/06 10:59:33;;;;;;;;;;;28.60;68.40;;;;;;5101068;27;19973;-58
2022/09/06 11:02:16;;;;;;;;;;;28.70;67.40;;;;;;5100261;27;19916;-58
2022/09/06 11:04:58;;;;;;;;;;;28.80;66.50;;;;;;5074127;28;19913;-57
2022/09/06 11:07:40;;;;;;;;;;;28.80;67.00;;;;;;5101118;27;19923;-58
2022/09/06 11:10:23;;;;;;;;;;;28.70;67.40;;;;;;5100946;27;19965;-58
2022/09/06 11:13:06;;;;;;;;;;;29.00;68.20;;;;;;5101870;27;19950;-58
2022/09/06 11:15:48;;;;;;;;;;;29.20;66.60;;;;;;5099776;27;19962;-58
2022/09/06 11:18:32;;;;;;;;;;;29.20;65.30;;;;;;5084124;27;19922;-58
2022/09/06 11:21:25;;;;;;;;;;;29.20;65.50;;;;;;5101805;27;19957;-58
2022/09/06 11:24:10;;;;;;;;;;;28.90;65.60;;;;;;5103051;27;19924;-58
2022/09/06 11:26:58;;;;;;;;;;;28.50;67.40;;;;;;5103140;27;20478;-58
2022/09/06 11:29:41;;;;;;;;;;;28.40;69.50;;;;;;5102780;27;20184;-58
2022/09/06 11:32:32;;;;;;;;;;;28.30;68.00;;;;;;5123835;27;19916;-58
2022/09/06 11:35:20;;;;;;;;;;;28.10;67.90;;;;;;5120767;27;19916;-58
2022/09/06 11:38:02;;;;;;;;;;;27.80;67.70;;;;;;5082024;28;19916;-58
2022/09/06 11:40:44;;;;;;;;;;;27.50;71.30;;;;;;5101226;27;19957;-58
2022/09/06 11:43:38;;;;;;;;;;;27.50;71.50;;;;;;5086432;27;19931;-58
2022/09/06 11:46:36;;;;;;;;;;;27.50;70.90;;;;;;5081098;28;19971;-57
2022/09/06 11:49:31;;;;;;;;;;;27.80;70.20;;;;;;5131765;27;19977;-58
2022/09/06 11:52:29;;;;;;;;;;;28.20;69.10;;;;;;5124308;27;20111;-58
2022/09/06 11:55:11;;;;;;;;;;;28.40;66.50;;;;;;5073197;28;19912;-58
2022/09/06 11:57:54;;;;;;;;;;;28.30;68.30;;;;;;5082098;28;19921;-58
2022/09/06 12:00:33;;;;;;;;;;;27.90;66.10;;;;;;5118525;27;19916;-58
2022/09/06 12:03:35;;;;;;;;;;;28.00;67.20;;;;;;5119882;27;20411;-57
2022/09/06 12:06:17;;;;;;;;;;;28.00;67.50;;;;;;5083606;27;19927;-58
2022/09/06 12:08:59;;;;;;;;;;;28.10;68.30;;;;;;5103269;27;20350;-57
2022/09/06 12:11:42;;;;;;;;;;;28.00;66.70;;;;;;5104005;27;19930;-58
2022/09/06 12:14:29;;;;;;;;;;;28.00;67.00;;;;;;5079396;27;19931;-58
2022/09/06 12:17:26;;;;;;;;;;;28.00;65.40;;;;;;5082095;28;19912;-58
2022/09/06 12:20:07;;;;;;;;;;;28.00;64.40;;;;;;5099103;27;19989;-58
2022/09/06 12:22:54;;;;;;;;;;;27.90;66.60;;;;;;5104960;27;20327;-58
2022/09/06 12:25:57;;;;;;;;;;;28.10;64.90;;;;;;5101324;27;20426;-58
2022/09/06 12:28:49;;;;;;;;;;;28.20;64.30;;;;;;5099111;27;19930;-58
2022/09/06 12:31:36;;;;;;;;;;;28.50;65.00;;;;;;5102936;27;19957;-58
2022/09/06 12:34:20;;;;;;;;;;;28.80;63.20;;;;;;5103255;27;19942;-58
2022/09/06 12:37:01;;;;;;;;;;;29.00;61.50;;;;;;5103779;27;19912;-58
2022/09/06 12:39:56;;;;;;;;;;;28.90;60.40;;;;;;5087077;27;19966;-58
2022/09/06 12:42:37;;;;;;;;;;;28.90;60.20;;;;;;5101906;27;19958;-58
2022/09/06 12:45:17;;;;;;;;;;;28.90;61.20;;;;;;5097485;27;19920;-58
2022/09/06 12:48:08;;;;;;;;;;;28.80;59.70;;;;;;5101439;27;19916;-58
2022/09/06 12:51:00;;;;;;;;;;;28.60;61.20;;;;;;5118589;27;19928;-58
2022/09/06 12:53:40;;;;;;;;;;;28.60;60.70;;;;;;5081864;28;19920;-58
2022/09/06 12:56:21;;;;;;;;;;;28.50;61.90;;;;;;5099944;27;19934;-57
2022/09/06 12:59:13;;;;;;;;;;;28.50;61.60;;;;;;5089801;27;20466;-58
2022/09/06 13:01:55;;;;;;;;;;;28.40;62.40;;;;;;5103790;27;19969;-58
2022/09/06 13:04:39;;;;;;;;;;;28.50;62.20;;;;;;5097579;27;19970;-58
2022/09/06 13:07:22;;;;;;;;;;;29.00;62.00;;;;;;5101454;27;19962;-58
2022/09/06 13:10:04;;;;;;;;;;;29.60;61.50;;;;;;5107849;27;19916;-58
2022/09/06 13:12:45;;;;;;;;;;;29.90;59.90;;;;;;5083466;28;19912;-58
2022/09/06 13:15:25;;;;;;;;;;;30.20;60.30;;;;;;5096678;27;20308;-58
2022/09/06 13:18:22;;;;;;;;;;;30.30;58.70;;;;;;5160006;27;19932;-58
2022/09/06 13:21:03;;;;;;;;;;;29.90;58.90;;;;;;5102172;27;19938;-58
2022/09/06 13:23:46;;;;;;;;;;;29.40;63.30;;;;;;5144959;27;19949;-58
2022/09/06 13:26:34;;;;;;;;;;;29.20;62.60;;;;;;5093467;27;19954;-57
2022/09/06 13:29:23;;;;;;;;;;;29.30;62.30;;;;;;5099613;27;19916;-58
2022/09/06 13:32:08;;;;;;;;;;;29.40;60.60;;;;;;5103555;27;19926;-58
2022/09/06 13:34:55;;;;;;;;;;;29.30;60.20;;;;;;5093469;27;20207;-58
2022/09/06 13:37:38;;;;;;;;;;;29.20;63.70;;;;;;5103773;27;20390;-58
2022/09/06 13:40:35;;;;;;;;;;;29.10;61.90;;;;;;5078599;28;19916;-58
2022/09/06 13:43:21;;;;;;;;;;;28.70;60.50;;;;;;5102491;27;19938;-57
2022/09/06 13:46:06;;;;;;;;;;;28.40;62.70;;;;;;5105902;27;20274;-58
2022/09/06 13:48:46;;;;;;;;;;;28.40;66.60;;;;;;5101154;27;19924;-58
2022/09/06 13:51:26;;;;;;;;;;;28.30;64.10;;;;;;5114936;27;19916;-58
2022/09/06 13:54:09;;;;;;;;;;;28.30;66.80;;;;;;5098470;27;20430;-58
2022/09/06 13:56:49;;;;;;;;;;;28.20;69.80;;;;;;5122225;27;19915;-58
2022/09/06 13:59:29;;;;;;;;;;;28.00;71.30;;;;;;5090858;27;19958;-58
2022/09/06 14:02:09;;;;;;;;;;;28.10;70.70;;;;;;5103244;27;20331;-58
2022/09/06 14:04:50;;;;;;;;;;;28.20;67.40;;;;;;5105001;27;19930;-58
2022/09/06 14:07:29;;;;;;;;;;;28.30;69.60;;;;;;5104027;27;19927;-58
2022/09/06 14:10:11;;;;;;;;;;;28.40;67.90;;;;;;5104298;27;19912;-58
2022/09/06 14:12:53;;;;;;;;;;;28.60;65.60;;;;;;5094570;27;19916;-58
2022/09/06 14:15:34;;;;;;;;;;;28.90;64.70;;;;;;5110155;27;20389;-57
2022/09/06 14:18:14;;;;;;;;;;;29.30;62.70;;;;;;5125480;27;19915;-57
2022/09/06 14:20:54;;;;;;;;;;;29.40;65.10;;;;;;5124836;27;19922;-57
2022/09/06 14:23:35;;;;;;;;;;;29.50;61.60;;;;;;5125951;27;20535;-57
2022/09/06 14:26:15;;;;;;;;;;;29.70;60.80;;;;;;5104857;27;20381;-57
2022/09/06 14:28:55;;;;;;;;;;;30.20;60.90;;;;;;5124918;27;19934;-57
2022/09/06 14:31:34;;;;;;;;;;;30.20;59.10;;;;;;5125895;27;19912;-57
2022/09/06 14:34:14;;;;;;;;;;;29.90;58.70;;;;;;5125495;27;19911;-57
2022/09/06 14:36:54;;;;;;;;;;;29.80;63.50;;;;;;5105286;27;19913;-57
2022/09/06 14:39:34;;;;;;;;;;;29.40;59.10;;;;;;5084433;28;20092;-58
2022/09/06 14:42:14;;;;;;;;;;;29.10;60.40;;;;;;5125597;27;20266;-58
2022/09/06 14:44:54;;;;;;;;;;;28.80;62.40;;;;;;5125288;27;19911;-57
2022/09/06 14:47:33;;;;;;;;;;;28.60;61.40;;;;;;5125311;27;19920;-57
2022/09/06 14:50:13;;;;;;;;;;;28.40;65.10;;;;;;5125193;27;19912;-57
2022/09/06 14:52:53;;;;;;;;;;;28.20;63.80;;;;;;5125454;27;19918;-58
2022/09/06 14:55:33;;;;;;;;;;;27.90;64.90;;;;;;5124683;27;20308;-57
2022/09/06 14:58:14;;;;;;;;;;;27.50;69.10;;;;;;5125652;27;20389;-57
2022/09/06 15:00:54;;;;;;;;;;;27.30;68.80;;;;;;5105073;27;19912;-57
2022/09/06 15:03:35;;;;;;;;;;;27.20;69.10;;;;;;5125112;27;19922;-57
2022/09/06 15:06:16;;;;;;;;;;;27.30;71.10;;;;;;5125559;27;19912;-57
2022/09/06 15:08:57;;;;;;;;;;;27.80;68.20;;;;;;5124798;27;19918;-58
2022/09/06 15:11:38;;;;;;;;;;;28.30;64.80;;;;;;5125440;27;20330;-57
2022/09/06 15:14:19;;;;;;;;;;;28.50;63.40;;;;;;5121225;27;19920;-58
2022/09/06 15:17:01;;;;;;;;;;;28.70;61.70;;;;;;5125163;27;20024;-57
2022/09/06 15:19:43;;;;;;;;;;;28.90;62.00;;;;;;5124317;27;19911;-57
2022/09/06 15:22:22;;;;;;;;;;;29.00;60.90;;;;;;5125036;27;19911;-57
2022/09/06 15:25:02;;;;;;;;;;;28.80;60.40;;;;;;5124827;27;19912;-56
2022/09/06 15:27:42;;;;;;;;;;;28.80;64.10;;;;;;5105468;27;19918;-57
2022/09/06 15:30:22;;;;;;;;;;;28.80;62.40;;;;;;5125011;27;19912;-57
2022/09/06 15:33:02;;;;;;;;;;;28.60;64.30;;;;;;5125759;27;19945;-57
2022/09/06 15:35:42;;;;;;;;;;;28.40;62.70;;;;;;5088211;27;19927;-57
2022/09/06 15:38:23;;;;;;;;;;;28.00;61.80;;;;;;5118903;27;19912;-58
2022/09/06 15:41:07;;;;;;;;;;;27.70;62.80;;;;;;5102668;27;19942;-57
2022/09/06 15:43:49;;;;;;;;;;;27.50;62.80;;;;;;5124500;27;20551;-57